createdAt,value
2017-04-11T00:00:24.120Z,6.57
2017-04-11T00:01:23.835Z,6.69
2017-04-11T00:02:23.609Z,7.90
2017-04-11T00:03:23.329Z,6.94
2017-04-11T00:04:23.007Z,5.01
2017-04-11T00:05:22.788Z,7.31
2017-04-11T00:06:22.600Z,9.94
2017-04-11T00:07:22.309Z,6.29
2017-04-11T00:08:22.187Z,4.74
2017-04-11T00:09:21.944Z,5.06
2017-04-11T00:10:21.699Z,9.44
2017-04-11T00:11:21.397Z,5.93
2017-04-11T00:12:21.184Z,4.99
2017-04-11T00:13:20.974Z,8.13
2017-04-11T00:14:20.692Z,5.41
2017-04-11T00:15:20.435Z,6.86
2017-04-11T00:16:20.180Z,8.63
2017-04-11T00:17:19.834Z,5.64
2017-04-11T00:18:19.547Z,7.17
2017-04-11T00:19:19.275Z,4.84
2017-04-11T00:20:18.984Z,6.23
2017-04-11T00:21:18.706Z,8.79
2017-04-11T00:22:18.419Z,5.03
2017-04-11T00:23:18.202Z,7.19
2017-04-11T00:24:18.005Z,8.31
2017-04-11T00:25:17.719Z,6.17
2017-04-11T00:26:17.539Z,6.29
2017-04-11T00:27:17.277Z,6.86
2017-04-11T00:28:17.020Z,6.53
2017-04-11T00:29:16.845Z,6.83
2017-04-11T00:30:16.581Z,9.54
2017-04-11T00:31:16.412Z,9.21
2017-04-11T00:32:16.128Z,12.56
2017-04-11T00:33:16.870Z,5.59
2017-04-11T00:34:16.614Z,7.54
2017-04-11T00:35:16.311Z,7.60
2017-04-11T00:36:15.991Z,8.74
2017-04-11T00:37:15.660Z,8.53
2017-04-11T00:38:15.415Z,7.51
2017-04-11T00:39:15.088Z,11.76
2017-04-11T00:40:14.787Z,6.81
2017-04-11T00:41:14.509Z,10.90
2017-04-11T00:42:14.172Z,3.61
2017-04-11T00:43:13.853Z,9.40
2017-04-11T00:44:13.512Z,9.16
2017-04-11T00:45:13.491Z,6.06
2017-04-11T00:46:13.188Z,8.00
2017-04-11T00:47:12.902Z,7.31
2017-04-11T00:48:12.797Z,4.91
2017-04-11T00:49:12.544Z,4.67
2017-04-11T00:50:12.277Z,7.63
2017-04-11T00:51:11.964Z,4.33
2017-04-11T00:52:11.740Z,9.23
2017-04-11T00:53:11.448Z,6.64
2017-04-11T00:54:12.260Z,4.33
2017-04-11T00:55:12.068Z,4.50
2017-04-11T00:56:11.741Z,6.90
2017-04-11T00:57:11.786Z,9.04
2017-04-11T00:58:11.507Z,9.99
2017-04-11T00:59:11.233Z,5.96
2017-04-11T01:00:10.951Z,5.06
2017-04-11T01:01:10.677Z,5.46
2017-04-11T01:02:10.436Z,5.80
2017-04-11T01:03:10.177Z,6.09
2017-04-11T01:04:09.920Z,5.54
2017-04-11T01:05:09.670Z,4.01
2017-04-11T01:06:09.461Z,5.17
2017-04-11T01:07:09.191Z,7.54
2017-04-11T01:08:08.920Z,9.13
2017-04-11T01:09:08.965Z,5.49
2017-04-11T01:10:08.708Z,8.89
2017-04-11T01:11:08.475Z,4.54
2017-04-11T01:12:08.213Z,4.41
2017-04-11T01:13:08.000Z,6.71
2017-04-11T01:14:07.744Z,7.47
2017-04-11T01:15:07.673Z,9.19
2017-04-11T01:16:07.372Z,4.77
2017-04-11T01:17:07.122Z,5.30
2017-04-11T01:18:06.953Z,3.01
2017-04-11T01:19:06.686Z,7.39
2017-04-11T01:20:06.401Z,9.29
2017-04-11T01:21:06.096Z,5.94
2017-04-11T01:22:05.777Z,8.33
2017-04-11T01:23:05.456Z,6.14
2017-04-11T01:24:05.409Z,9.16
2017-04-11T01:25:05.141Z,11.97
2017-04-11T01:26:04.879Z,9.46
2017-04-11T01:27:04.625Z,9.89
2017-04-11T01:28:04.337Z,11.73
2017-04-11T01:29:04.065Z,5.97
2017-04-11T01:30:03.787Z,3.36
2017-04-11T01:31:03.539Z,10.41
2017-04-11T01:32:03.253Z,7.06
2017-04-11T01:33:02.979Z,13.69
2017-04-11T01:34:02.664Z,13.00
2017-04-11T01:35:02.393Z,9.34
2017-04-11T01:36:02.224Z,12.06
2017-04-11T01:37:01.920Z,7.41
2017-04-11T01:38:32.227Z,6.61
2017-04-11T01:39:31.936Z,8.37
2017-04-11T01:40:31.628Z,9.17
2017-04-11T01:41:31.317Z,7.19
2017-04-11T01:42:31.030Z,11.14
2017-04-11T01:43:30.773Z,12.91
2017-04-11T01:44:30.520Z,14.39
2017-04-11T01:45:30.237Z,12.29
2017-04-11T01:46:30.036Z,5.79
2017-04-11T01:47:29.755Z,8.36
2017-04-11T01:48:29.711Z,12.30
2017-04-11T01:49:29.487Z,7.29
2017-04-11T01:50:29.218Z,8.99
2017-04-11T01:51:29.013Z,10.91
2017-04-11T01:52:29.332Z,5.77
2017-04-11T01:53:29.053Z,10.99
2017-04-11T01:54:28.749Z,6.67
2017-04-11T01:55:28.497Z,15.70
2017-04-11T01:56:28.178Z,9.36
2017-04-11T01:57:27.852Z,7.66
2017-04-11T01:58:27.589Z,7.50
2017-04-11T01:59:27.356Z,13.47
2017-04-11T02:00:27.074Z,7.16
2017-04-11T02:01:26.804Z,11.20
2017-04-11T02:02:26.842Z,13.47
2017-04-11T02:03:26.552Z,5.74
2017-04-11T02:04:26.267Z,11.11
2017-04-11T02:05:26.009Z,5.19
2017-04-11T02:06:25.748Z,12.19
2017-04-11T02:07:25.440Z,9.56
2017-04-11T02:08:25.253Z,13.79
2017-04-11T02:09:25.128Z,13.64
2017-04-11T02:10:24.917Z,12.69
2017-04-11T02:11:24.756Z,12.11
2017-04-11T02:12:24.471Z,8.57
2017-04-11T02:13:24.168Z,13.26
2017-04-11T02:14:23.844Z,11.47
2017-04-11T02:15:23.560Z,5.89
2017-04-11T02:16:23.320Z,13.39
2017-04-11T02:17:23.049Z,15.29
2017-04-11T02:18:22.745Z,17.40
2017-04-11T02:19:22.473Z,9.21
2017-04-11T02:20:22.278Z,15.56
2017-04-11T02:21:21.977Z,9.91
2017-04-11T02:22:21.702Z,10.51
2017-04-11T02:23:21.393Z,14.60
2017-04-11T02:24:21.068Z,7.84
2017-04-11T02:25:20.756Z,6.73
2017-04-11T02:26:20.453Z,9.81
2017-04-11T02:27:20.162Z,12.61
2017-04-11T02:28:19.973Z,10.44
2017-04-11T02:29:19.641Z,13.84
2017-04-11T02:30:19.343Z,8.06
2017-04-11T02:31:19.041Z,12.61
2017-04-11T02:32:19.509Z,10.73
2017-04-11T02:33:19.208Z,11.27
2017-04-11T02:34:18.945Z,11.24
2017-04-11T02:35:18.703Z,11.87
2017-04-11T02:36:18.408Z,10.69
2017-04-11T02:37:18.121Z,9.20
2017-04-11T02:38:17.812Z,7.50
2017-04-11T02:39:17.564Z,6.83
2017-04-11T02:40:17.299Z,15.71
2017-04-11T02:41:17.055Z,9.11
2017-04-11T02:42:16.799Z,10.30
2017-04-11T02:43:16.484Z,10.29
2017-04-11T02:44:16.211Z,13.36
2017-04-11T02:45:15.904Z,8.31
2017-04-11T02:46:15.633Z,18.56
2017-04-11T02:47:15.360Z,10.83
2017-04-11T02:48:15.016Z,9.51
2017-04-11T02:49:14.690Z,10.04
2017-04-11T02:50:14.407Z,18.56
2017-04-11T02:51:14.274Z,9.90
2017-04-11T02:52:14.124Z,9.97
2017-04-11T02:53:14.096Z,16.70
2017-04-11T02:54:13.764Z,11.94
2017-04-11T02:55:13.551Z,17.01
2017-04-11T02:56:13.276Z,12.89
2017-04-11T02:57:13.004Z,9.11
2017-04-11T02:58:12.724Z,10.39
2017-04-11T02:59:12.428Z,14.66
2017-04-11T03:00:12.182Z,14.90
2017-04-11T03:01:11.929Z,13.33
2017-04-11T03:02:11.620Z,8.80
2017-04-11T03:03:11.375Z,12.06
2017-04-11T03:04:11.378Z,11.71
2017-04-11T03:05:11.085Z,10.19
2017-04-11T03:06:10.782Z,13.27
2017-04-11T03:07:10.485Z,11.34
2017-04-11T03:08:10.494Z,12.53
2017-04-11T03:09:10.212Z,20.27
2017-04-11T03:10:09.931Z,20.83
2017-04-11T03:11:09.654Z,12.86
2017-04-11T03:12:09.359Z,11.13
2017-04-11T03:13:09.034Z,16.19
2017-04-11T03:14:08.722Z,16.36
2017-04-11T03:15:08.495Z,15.94
2017-04-11T03:16:08.602Z,17.16
2017-04-11T03:17:08.353Z,12.16
2017-04-11T03:18:08.271Z,13.49
2017-04-11T03:19:07.969Z,13.67
2017-04-11T03:20:07.665Z,13.16
2017-04-11T03:21:07.345Z,10.97
2017-04-11T03:22:07.074Z,12.93
2017-04-11T03:23:06.763Z,19.74
2017-04-11T03:24:06.460Z,11.10
2017-04-11T03:25:06.227Z,14.13
2017-04-11T03:26:05.922Z,17.31
2017-04-11T03:27:05.972Z,14.89
2017-04-11T03:28:06.008Z,11.54
2017-04-11T03:29:05.713Z,13.50
2017-04-11T03:30:05.394Z,14.69
2017-04-11T03:31:05.062Z,14.03
2017-04-11T03:32:04.752Z,18.40
2017-04-11T03:33:04.466Z,13.13
2017-04-11T03:34:04.152Z,19.17
2017-04-11T03:35:03.856Z,14.81
2017-04-11T03:36:03.735Z,15.81
2017-04-11T03:37:03.588Z,19.47
2017-04-11T03:38:04.010Z,14.91
2017-04-11T03:39:03.937Z,16.31
2017-04-11T03:40:04.076Z,11.00
2017-04-11T03:41:03.916Z,14.39
2017-04-11T03:42:03.664Z,15.03
2017-04-11T03:43:03.380Z,12.74
2017-04-11T03:44:03.134Z,19.51
2017-04-11T03:45:02.892Z,17.96
2017-04-11T03:46:02.629Z,13.81
2017-04-11T03:47:02.368Z,17.16
2017-04-11T03:48:02.052Z,12.97
2017-04-11T03:49:01.783Z,13.57
2017-04-11T03:50:01.491Z,12.30
2017-04-11T03:51:01.207Z,15.46
2017-04-11T03:52:00.936Z,16.66
2017-04-11T03:53:00.599Z,16.49
2017-04-11T03:54:00.342Z,14.81
2017-04-11T03:55:00.019Z,17.93
2017-04-11T03:55:59.719Z,15.89
2017-04-11T03:56:59.432Z,14.57
2017-04-11T03:57:59.164Z,19.96
2017-04-11T03:58:58.929Z,13.59
2017-04-11T03:59:58.807Z,17.81
2017-04-11T04:00:58.524Z,21.87
2017-04-11T04:01:58.341Z,13.23
2017-04-11T04:02:58.150Z,17.66
2017-04-11T04:03:57.952Z,16.34
2017-04-11T04:04:57.742Z,11.24
2017-04-11T04:05:57.458Z,15.54
2017-04-11T04:06:57.142Z,14.67
2017-04-11T04:07:56.818Z,13.87
2017-04-11T04:08:56.483Z,15.34
2017-04-11T04:09:56.190Z,13.56
2017-04-11T04:10:56.183Z,14.30
2017-04-11T04:11:55.944Z,19.06
2017-04-11T04:12:55.629Z,17.33
2017-04-11T04:13:55.328Z,10.51
2017-04-11T04:14:55.024Z,13.54
2017-04-11T04:15:54.932Z,12.64
2017-04-11T04:16:54.632Z,18.09
2017-04-11T04:17:54.329Z,12.00
2017-04-11T04:18:54.052Z,19.93
2017-04-11T04:19:53.772Z,12.50
2017-04-11T04:20:53.568Z,10.91
2017-04-11T04:21:53.306Z,11.26
2017-04-11T04:22:53.149Z,18.73
2017-04-11T04:23:52.925Z,32.50
2017-04-11T04:24:52.644Z,10.81
2017-04-11T04:25:52.346Z,14.87
2017-04-11T04:26:52.077Z,18.00
2017-04-11T04:27:51.791Z,21.61
2017-04-11T04:28:51.492Z,10.89
2017-04-11T04:29:51.193Z,12.26
2017-04-11T04:30:50.874Z,11.64
2017-04-11T04:31:50.594Z,17.23
2017-04-11T04:32:50.603Z,10.94
2017-04-11T04:33:50.349Z,13.90
2017-04-11T04:34:50.116Z,13.74
2017-04-11T04:35:49.915Z,14.36
2017-04-11T04:36:49.639Z,15.90
2017-04-11T04:37:49.317Z,16.73
2017-04-11T04:38:48.996Z,10.86
2017-04-11T04:39:49.019Z,18.94
2017-04-11T04:40:48.723Z,16.57
2017-04-11T04:41:48.429Z,16.50
2017-04-11T04:42:48.156Z,17.60
2017-04-11T04:43:47.940Z,10.13
2017-04-11T04:44:47.647Z,13.43
2017-04-11T04:45:47.521Z,14.60
2017-04-11T04:46:47.256Z,18.86
2017-04-11T04:47:46.939Z,20.73
2017-04-11T04:48:47.051Z,17.73
2017-04-11T04:49:46.746Z,10.49
2017-04-11T04:50:46.465Z,9.16
2017-04-11T04:51:46.179Z,16.84
2017-04-11T04:52:45.864Z,14.09
2017-04-11T04:53:45.558Z,12.96
2017-04-11T04:54:45.302Z,23.94
2017-04-11T04:55:45.056Z,13.10
2017-04-11T04:56:44.787Z,13.56
2017-04-11T04:57:44.517Z,10.06
2017-04-11T04:58:44.239Z,15.61
2017-04-11T04:59:43.934Z,16.54
2017-04-11T05:00:43.656Z,11.31
2017-04-11T05:01:43.356Z,15.51
2017-04-11T05:02:43.052Z,14.06
2017-04-11T05:03:42.848Z,10.76
2017-04-11T05:04:42.624Z,17.30
2017-04-11T05:05:42.403Z,13.16
2017-04-11T05:06:42.320Z,13.21
2017-04-11T05:07:42.055Z,14.99
2017-04-11T05:08:42.043Z,16.83
2017-04-11T05:09:41.837Z,12.76
2017-04-11T05:10:41.623Z,12.00
2017-04-11T05:11:41.357Z,16.00
2017-04-11T05:12:41.084Z,10.17
2017-04-11T05:13:40.856Z,21.53
2017-04-11T05:14:40.580Z,15.86
2017-04-11T05:15:40.357Z,11.73
2017-04-11T05:16:40.090Z,11.90
2017-04-11T05:17:39.832Z,17.20
2017-04-11T05:18:39.620Z,15.91
2017-04-11T05:19:39.296Z,13.53
2017-04-11T05:20:39.084Z,20.63
2017-04-11T05:21:38.779Z,12.73
2017-04-11T05:22:38.498Z,20.36
2017-04-11T05:23:38.242Z,16.90
2017-04-11T05:24:37.941Z,10.51
2017-04-11T05:25:38.152Z,18.11
2017-04-11T05:26:39.184Z,14.39
2017-04-11T05:27:38.958Z,11.19
2017-04-11T05:28:38.643Z,15.79
2017-04-11T05:29:39.174Z,20.36
2017-04-11T05:30:38.923Z,14.24
2017-04-11T05:31:40.370Z,17.83
2017-04-11T05:32:40.421Z,14.96
2017-04-11T05:33:41.278Z,14.77
2017-04-11T05:34:41.478Z,20.10
2017-04-11T05:35:41.224Z,15.53
2017-04-11T05:36:40.930Z,15.26
2017-04-11T05:37:40.763Z,16.11
2017-04-11T05:38:40.558Z,11.03
2017-04-11T05:39:40.321Z,12.60
2017-04-11T05:40:40.086Z,17.09
2017-04-11T05:41:39.751Z,15.36
2017-04-11T05:42:39.510Z,17.54
2017-04-11T05:43:39.183Z,16.06
2017-04-11T05:44:39.188Z,12.64
2017-04-11T05:45:38.875Z,16.61
2017-04-11T05:46:38.884Z,16.84
2017-04-11T05:47:38.635Z,12.41
2017-04-11T05:48:38.389Z,13.16
2017-04-11T05:49:38.110Z,13.51
2017-04-11T05:50:37.822Z,13.41
2017-04-11T05:51:39.171Z,18.57
2017-04-11T05:52:39.199Z,18.50
2017-04-11T05:53:38.984Z,7.89
2017-04-11T05:54:38.829Z,11.50
2017-04-11T05:55:38.574Z,17.49
2017-04-11T05:56:38.295Z,10.86
2017-04-11T05:57:38.146Z,12.79
2017-04-11T05:58:38.310Z,12.81
2017-04-11T05:59:38.038Z,13.36
2017-04-11T06:00:38.007Z,9.27
2017-04-11T06:01:37.760Z,14.33
2017-04-11T06:02:37.501Z,12.53
2017-04-11T06:03:37.620Z,14.80
2017-04-11T06:04:37.358Z,13.27
2017-04-11T06:05:37.049Z,14.81
2017-04-11T06:06:36.837Z,13.66
2017-04-11T06:07:36.664Z,11.61
2017-04-11T06:08:36.412Z,10.47
2017-04-11T06:09:36.155Z,15.86
2017-04-11T06:10:35.969Z,10.83
2017-04-11T06:11:35.670Z,15.83
2017-04-11T06:12:35.764Z,13.89
2017-04-11T06:13:35.614Z,12.17
2017-04-11T06:14:35.294Z,16.47
2017-04-11T06:15:35.426Z,17.29
2017-04-11T06:16:35.287Z,16.39
2017-04-11T06:17:39.687Z,14.31
2017-04-11T06:18:39.527Z,13.37
2017-04-11T06:19:39.916Z,16.60
2017-04-11T06:20:39.748Z,16.21
2017-04-11T06:21:39.708Z,14.97
2017-04-11T06:22:40.123Z,11.71
2017-04-11T06:23:39.975Z,17.43
2017-04-11T06:24:39.795Z,15.01
2017-04-11T06:25:39.548Z,11.54
2017-04-11T06:26:39.307Z,15.13
2017-04-11T06:27:39.040Z,10.76
2017-04-11T06:28:38.810Z,11.99
2017-04-11T06:29:38.588Z,12.84
2017-04-11T06:30:38.303Z,10.30
2017-04-11T06:31:38.320Z,13.73
2017-04-11T06:32:38.676Z,16.37
2017-04-11T06:33:38.557Z,14.96
2017-04-11T06:34:38.415Z,16.04
2017-04-11T06:35:38.250Z,11.86
2017-04-11T06:36:38.063Z,15.06
2017-04-11T06:37:38.120Z,11.76
2017-04-11T06:38:37.988Z,12.39
2017-04-11T06:39:37.784Z,8.61
2017-04-11T06:40:38.050Z,14.07
2017-04-11T06:41:38.295Z,9.54
2017-04-11T06:42:41.181Z,17.03
2017-04-11T06:43:40.952Z,15.39
2017-04-11T06:44:41.039Z,11.64
2017-04-11T06:45:40.938Z,12.19
2017-04-11T06:46:40.734Z,9.36
2017-04-11T06:47:44.510Z,15.89
2017-04-11T06:48:44.293Z,17.57
2017-04-11T06:49:44.078Z,12.89
2017-04-11T06:50:43.814Z,15.54
2017-04-11T06:51:43.626Z,16.30
2017-04-11T06:52:43.396Z,14.03
2017-04-11T06:53:43.164Z,11.57
2017-04-11T06:54:42.916Z,14.97
2017-04-11T06:55:42.686Z,13.37
2017-04-11T06:56:42.403Z,14.33
2017-04-11T06:57:42.225Z,10.63
2017-04-11T06:58:42.047Z,12.90
2017-04-11T06:59:41.809Z,10.04
2017-04-11T07:00:41.655Z,12.77
2017-04-11T07:01:41.480Z,12.70
2017-04-11T07:02:41.522Z,17.29
2017-04-11T07:03:41.493Z,15.87
2017-04-11T07:04:41.524Z,12.91
2017-04-11T07:05:41.759Z,17.87
2017-04-11T07:06:41.670Z,13.76
2017-04-11T07:07:42.021Z,14.64
2017-04-11T07:08:42.702Z,14.30
2017-04-11T07:09:42.814Z,12.36
2017-04-11T07:10:42.590Z,13.00
2017-04-11T07:11:42.386Z,9.33
2017-04-11T07:12:42.327Z,11.27
2017-04-11T07:13:42.185Z,10.93
2017-04-11T07:14:41.987Z,12.53
2017-04-11T07:15:41.807Z,10.66
2017-04-11T07:16:41.614Z,12.99
2017-04-11T07:17:41.549Z,7.47
2017-04-11T07:18:41.812Z,12.66
2017-04-11T07:19:41.562Z,11.16
2017-04-11T07:20:41.406Z,10.97
2017-04-11T07:21:41.155Z,11.00
2017-04-11T07:22:41.826Z,10.49
2017-04-11T07:23:41.613Z,8.67
2017-04-11T07:24:41.444Z,12.24
2017-04-11T07:25:41.127Z,8.40
2017-04-11T07:26:40.883Z,9.21
2017-04-11T07:27:40.671Z,9.53
2017-04-11T07:28:40.845Z,11.01
2017-04-11T07:29:40.565Z,8.37
2017-04-11T07:30:41.583Z,14.37
2017-04-11T07:31:41.452Z,13.83
2017-04-11T07:32:41.706Z,16.66
2017-04-11T07:33:41.636Z,8.89
2017-04-11T07:34:41.447Z,9.97
2017-04-11T07:35:41.185Z,7.70
2017-04-11T07:36:40.892Z,8.90
2017-04-11T07:37:40.653Z,9.74
2017-04-11T07:38:40.441Z,8.00
2017-04-11T07:39:40.296Z,5.99
2017-04-11T07:40:40.307Z,9.47
2017-04-11T07:41:40.133Z,7.87
2017-04-11T07:42:39.870Z,12.04
2017-04-11T07:43:39.585Z,7.80
2017-04-11T07:44:39.341Z,8.66
2017-04-11T07:45:39.134Z,6.50
2017-04-11T07:46:38.841Z,8.26
2017-04-11T07:47:38.592Z,7.36
2017-04-11T07:48:38.311Z,5.87
2017-04-11T07:49:38.140Z,6.73
2017-04-11T07:50:37.876Z,9.34
2017-04-11T07:51:38.263Z,8.50
2017-04-11T07:52:38.070Z,10.46
2017-04-11T07:53:38.228Z,8.39
2017-04-11T07:54:38.292Z,8.17
2017-04-11T07:55:38.513Z,5.77
2017-04-11T07:56:38.301Z,6.31
2017-04-11T07:57:38.100Z,6.71
2017-04-11T07:58:37.879Z,7.13
2017-04-11T07:59:37.608Z,4.67
2017-04-11T08:00:37.393Z,6.30
2017-04-11T08:01:37.457Z,5.50
2017-04-11T08:02:37.976Z,7.64
2017-04-11T08:03:37.777Z,7.26
2017-04-11T08:04:37.651Z,6.26
2017-04-11T08:05:37.432Z,7.33
2017-04-11T08:06:37.253Z,6.04
2017-04-11T08:07:37.054Z,4.46
2017-04-11T08:08:38.122Z,5.20
2017-04-11T08:09:37.959Z,5.50
2017-04-11T08:10:37.717Z,7.19
2017-04-11T08:11:37.699Z,8.39
2017-04-11T08:12:37.541Z,5.27
2017-04-11T08:13:37.382Z,6.10
2017-04-11T08:14:38.097Z,7.13
2017-04-11T08:15:38.026Z,6.61
2017-04-11T08:16:38.300Z,6.87
2017-04-11T08:17:38.075Z,5.43
2017-04-11T08:18:41.457Z,8.00
2017-04-11T08:19:41.538Z,5.81
2017-04-11T08:20:42.394Z,8.30
2017-04-11T08:21:42.297Z,6.54
2017-04-11T08:22:42.180Z,6.81
2017-04-11T08:23:42.221Z,6.69
2017-04-11T08:24:42.262Z,8.30
2017-04-11T08:25:42.172Z,5.79
2017-04-11T08:26:41.912Z,7.49
2017-04-11T08:27:41.655Z,7.41
2017-04-11T08:28:41.368Z,7.59
2017-04-11T08:29:41.805Z,6.61
2017-04-11T08:30:41.568Z,6.96
2017-04-11T08:31:41.312Z,5.07
2017-04-11T08:32:41.057Z,6.91
2017-04-11T08:33:40.778Z,7.51
2017-04-11T08:34:40.509Z,4.14
2017-04-11T08:35:40.281Z,6.64
2017-04-11T08:36:40.178Z,4.37
2017-04-11T08:37:40.002Z,5.06
2017-04-11T08:38:39.766Z,6.46
2017-04-11T08:39:39.587Z,5.04
2017-04-11T08:40:39.683Z,7.04
2017-04-11T08:41:40.002Z,4.11
2017-04-11T08:42:39.773Z,4.31
2017-04-11T08:43:40.557Z,5.63
2017-04-11T08:44:41.171Z,5.49
2017-04-11T08:45:41.345Z,4.91
2017-04-11T08:46:41.128Z,5.30
2017-04-11T08:47:40.894Z,4.83
2017-04-11T08:48:40.659Z,4.90
2017-04-11T08:49:40.389Z,3.44
2017-04-11T08:50:40.183Z,8.17
2017-04-11T08:51:39.980Z,5.81
2017-04-11T08:52:39.853Z,3.99
2017-04-11T08:53:39.582Z,5.17
2017-04-11T08:54:39.597Z,5.63
2017-04-11T08:55:40.473Z,5.29
2017-04-11T08:56:40.687Z,7.00
2017-04-11T08:57:41.466Z,4.46
2017-04-11T08:58:41.372Z,3.74
2017-04-11T08:59:41.170Z,5.03
2017-04-11T09:00:41.235Z,4.70
2017-04-11T09:01:41.453Z,5.61
2017-04-11T09:02:41.728Z,3.18
2017-04-11T09:03:41.981Z,4.36
2017-04-11T09:04:42.028Z,6.14
2017-04-11T09:05:42.175Z,8.15
2017-04-11T09:06:42.213Z,4.97
2017-04-11T09:07:42.440Z,5.32
2017-04-11T09:08:43.770Z,4.90
2017-04-11T09:09:46.247Z,5.85
2017-04-11T09:10:46.904Z,5.37
2017-04-11T09:11:47.013Z,6.62
2017-04-11T09:12:47.734Z,6.73
2017-04-11T09:13:49.122Z,4.52
2017-04-11T09:14:49.061Z,3.60
2017-04-11T09:15:49.857Z,4.80
2017-04-11T09:16:52.218Z,4.85
2017-04-11T09:17:52.351Z,3.62
2017-04-11T09:18:52.876Z,5.20
2017-04-11T09:19:52.781Z,3.83
2017-04-11T09:20:52.727Z,5.67
2017-04-11T09:21:53.663Z,5.83
2017-04-11T09:22:53.517Z,3.57
2017-04-11T09:23:53.725Z,5.62
2017-04-11T09:24:54.031Z,4.82
2017-04-11T09:25:54.119Z,3.83
2017-04-11T09:26:54.019Z,3.58
2017-04-11T09:27:53.908Z,4.60
2017-04-11T09:28:54.044Z,4.73
2017-04-11T09:29:54.259Z,4.23
2017-04-11T09:30:55.396Z,4.18
2017-04-11T09:31:55.574Z,4.77
2017-04-11T09:32:55.533Z,4.15
2017-04-11T09:33:55.406Z,4.07
2017-04-11T09:34:55.354Z,9.87
2017-04-11T09:35:55.834Z,3.19
2017-04-11T09:36:55.879Z,2.70
2017-04-11T09:37:59.393Z,4.30
2017-04-11T09:38:59.149Z,3.96
2017-04-11T09:40:04.461Z,4.99
2017-04-11T09:41:04.221Z,4.28
2017-04-11T09:42:04.493Z,4.00
2017-04-11T09:43:04.678Z,3.31
2017-04-11T09:44:05.797Z,3.26
2017-04-11T09:45:05.716Z,4.51
2017-04-11T09:46:05.600Z,4.51
2017-04-11T09:47:05.462Z,4.73
2017-04-11T09:48:05.283Z,3.91
2017-04-11T09:49:05.062Z,3.85
2017-04-11T09:50:05.032Z,4.93
2017-04-11T09:51:04.825Z,3.31
2017-04-11T09:52:04.587Z,2.89
2017-04-11T09:53:04.483Z,3.70
2017-04-11T09:54:04.357Z,5.74
2017-04-11T09:55:04.272Z,4.41
2017-04-11T09:56:04.552Z,4.15
2017-04-11T09:57:04.522Z,4.05
2017-04-11T09:58:04.302Z,3.31
2017-04-11T09:59:04.454Z,3.11
2017-04-11T10:00:04.446Z,4.84
2017-04-11T10:01:04.335Z,4.21
2017-04-11T10:02:04.344Z,4.80
2017-04-11T10:03:05.381Z,4.69
2017-04-11T10:04:05.209Z,5.33
2017-04-11T10:05:06.804Z,4.24
2017-04-11T10:06:06.616Z,4.91
2017-04-11T10:07:10.970Z,4.40
2017-04-11T10:08:11.566Z,4.71
2017-04-11T10:09:11.848Z,3.03
2017-04-11T10:10:11.625Z,5.04
2017-04-11T10:11:11.663Z,3.54
2017-04-11T10:12:11.591Z,4.11
2017-04-11T10:13:12.199Z,3.71
2017-04-11T10:14:12.226Z,3.73
2017-04-11T10:15:12.055Z,3.99
2017-04-11T10:16:11.954Z,3.14
2017-04-11T10:17:11.744Z,6.10
2017-04-11T10:18:11.545Z,9.04
2017-04-11T10:19:11.339Z,3.49
2017-04-11T10:20:11.124Z,4.36
2017-04-11T10:21:10.896Z,4.90
2017-04-11T10:22:11.286Z,3.89
2017-04-11T10:23:11.053Z,4.86
2017-04-11T10:24:11.617Z,5.66
2017-04-11T10:25:11.408Z,4.67
2017-04-11T10:26:11.205Z,4.06
2017-04-11T10:27:10.918Z,4.39
2017-04-11T10:28:10.748Z,4.26
2017-04-11T10:29:10.516Z,5.59
2017-04-11T10:30:10.671Z,6.03
2017-04-11T10:31:10.614Z,7.16
2017-04-11T10:32:15.297Z,4.87
2017-04-11T10:33:15.122Z,2.96
2017-04-11T10:34:15.129Z,4.27
2017-04-11T10:35:15.011Z,5.57
2017-04-11T10:36:14.867Z,5.10
2017-04-11T10:37:14.612Z,4.07
2017-04-11T10:38:14.392Z,3.69
2017-04-11T10:39:14.187Z,4.13
2017-04-11T10:40:15.178Z,3.53
2017-04-11T10:41:15.093Z,3.94
2017-04-11T10:42:15.032Z,4.37
2017-04-11T10:43:14.924Z,3.52
2017-04-11T10:44:14.928Z,5.30
2017-04-11T10:45:14.682Z,4.93
2017-04-11T10:46:14.479Z,4.70
2017-04-11T10:47:14.278Z,4.19
2017-04-11T10:48:14.098Z,3.31
2017-04-11T10:49:13.858Z,6.01
